Time;durP1;ratioP1;P1;durP2;ratioP2;P2;SDS_P1;SDS_P2;PMS_P1;PMS_P2;Temp;Humidity;BMP_temperature;BMP_pressure;BME280_temperature;BME280_humidity;BME280_pressure;Samples;Min_cycle;Max_cycle;Signal;HPM_P1;HPM_P2
2021/06/27 00:01:15;;;;;;;17.60;9.85;;;;;;;22.51;100.00;100791.09;1680464;85;21019;-84
2021/06/27 00:03:42;;;;;;;17.15;10.45;;;;;;;22.52;100.00;100782.17;1674832;85;21019;-85
2021/06/27 00:06:09;;;;;;;23.77;10.85;;;;;;;22.53;100.00;100781.64;1681557;85;21612;-82
2021/06/27 00:08:37;;;;;;;17.35;10.55;;;;;;;22.55;100.00;100782.31;1681489;85;21168;-81
2021/06/27 00:11:06;;;;;;;17.73;9.83;;;;;;;22.55;100.00;100787.11;1681144;85;20963;-83
2021/06/27 00:13:33;;;;;;;18.25;9.43;;;;;;;22.56;100.00;100788.73;1653506;85;21102;-84
2021/06/27 00:16:00;;;;;;;23.90;9.28;;;;;;;22.57;100.00;100798.81;1681956;85;20932;-87
2021/06/27 00:18:27;;;;;;;21.40;9.13;;;;;;;22.55;100.00;100796.36;1681585;85;20970;-79
2021/06/27 00:20:57;;;;;;;15.18;9.38;;;;;;;22.54;100.00;100794.70;1682499;84;21577;-79
2021/06/27 00:23:28;;;;;;;14.83;9.40;;;;;;;22.53;100.00;100791.73;1678470;83;21010;-80
2021/06/27 00:25:56;;;;;;;21.33;9.23;;;;;;;22.52;100.00;100782.66;1687385;85;21391;-88
2021/06/27 00:28:23;;;;;;;16.02;9.10;;;;;;;22.52;100.00;100778.70;1687043;85;21015;-81
2021/06/27 00:30:51;;;;;;;20.60;9.25;;;;;;;22.51;100.00;100781.00;1693653;84;21298;-85
2021/06/27 00:33:18;;;;;;;18.17;9.55;;;;;;;22.48;100.00;100772.93;1686536;85;21148;-84
2021/06/27 00:35:45;;;;;;;16.00;9.40;;;;;;;22.47;100.00;100788.95;1686708;85;21018;-81
2021/06/27 00:38:12;;;;;;;16.30;9.15;;;;;;;22.44;100.00;100782.70;1686855;84;21095;-85
2021/06/27 00:40:39;;;;;;;14.43;8.95;;;;;;;22.40;100.00;100787.51;1693947;84;20971;-82
2021/06/27 00:43:06;;;;;;;13.65;8.03;;;;;;;22.37;100.00;100781.77;1693736;84;21562;-82
2021/06/27 00:45:33;;;;;;;21.33;9.50;;;;;;;22.32;100.00;100774.34;1693664;84;21125;-86
2021/06/27 00:48:00;;;;;;;18.48;9.65;;;;;;;22.28;100.00;100769.08;1693109;84;20989;-85
2021/06/27 00:50:38;;;;;;;13.38;9.13;;;;;;;22.27;100.00;100783.81;1686722;84;21042;-84
2021/06/27 00:53:05;;;;;;;21.25;9.63;;;;;;;22.24;100.00;100791.56;1686770;85;20967;-85
2021/06/27 00:55:32;;;;;;;17.27;9.03;;;;;;;22.22;100.00;100790.09;1694143;84;21098;-79
2021/06/27 00:57:58;;;;;;;15.90;9.43;;;;;;;22.20;100.00;100791.61;1692625;84;21152;-84
2021/06/27 01:00:28;;;;;;;14.50;9.55;;;;;;;22.18;100.00;100787.50;1692945;84;21408;-81
2021/06/27 01:02:55;;;;;;;13.75;9.13;;;;;;;22.16;100.00;100783.69;1692727;84;21033;-83
2021/06/27 01:05:25;;;;;;;13.70;8.68;;;;;;;22.13;100.00;100782.22;1693999;84;21030;-83
2021/06/27 01:07:53;;;;;;;13.43;9.05;;;;;;;22.12;100.00;100781.88;1687109;84;21037;-83
2021/06/27 01:10:21;;;;;;;20.95;9.55;;;;;;;22.09;100.00;100786.20;1686955;85;21204;-83
2021/06/27 01:12:48;;;;;;;13.05;8.63;;;;;;;22.05;100.00;100784.06;1693985;84;21434;-80
2021/06/27 01:15:16;;;;;;;16.82;10.58;;;;;;;21.98;100.00;100783.95;1693810;84;21035;-80
2021/06/27 01:17:46;;;;;;;18.48;9.70;;;;;;;21.94;100.00;100774.71;1686658;85;21082;-86
2021/06/27 01:20:22;;;;;;;18.00;9.75;;;;;;;21.88;100.00;100783.30;1693888;84;20998;-84
2021/06/27 01:22:51;;;;;;;16.60;10.48;;;;;;;21.85;100.00;100797.34;1686364;85;21661;-85
2021/06/27 01:25:22;;;;;;;16.42;9.18;;;;;;;21.83;100.00;100807.23;1686701;85;20923;-83
2021/06/27 01:27:48;;;;;;;14.03;9.08;;;;;;;21.81;100.00;100810.55;1686626;85;21452;-83
2021/06/27 01:30:16;;;;;;;16.93;9.68;;;;;;;21.78;100.00;100814.37;1686490;85;21020;-83
2021/06/27 01:32:46;;;;;;;13.80;9.55;;;;;;;21.76;100.00;100808.94;1686631;85;21097;-82
2021/06/27 01:35:17;;;;;;;14.70;9.28;;;;;;;21.74;100.00;100809.09;1686592;85;21148;-85
2021/06/27 01:37:44;;;;;;;18.23;9.85;;;;;;;21.72;100.00;100802.33;1686438;85;21022;-80
2021/06/27 01:40:13;;;;;;;17.23;9.65;;;;;;;21.73;100.00;100804.79;1686625;85;21058;-81
2021/06/27 01:42:40;;;;;;;19.48;10.08;;;;;;;21.73;100.00;100809.27;1686451;85;21090;-85
2021/06/27 01:45:15;;;;;;;17.10;8.85;;;;;;;21.74;100.00;100808.26;1686622;85;20987;-78
2021/06/27 01:47:41;;;;;;;15.55;9.58;;;;;;;21.74;100.00;100816.18;1665260;85;21786;-85
2021/06/27 01:50:11;;;;;;;16.77;9.73;;;;;;;21.73;100.00;100819.84;1686653;85;20987;-84
2021/06/27 01:52:38;;;;;;;14.38;9.28;;;;;;;21.71;100.00;100812.56;1664003;85;21533;-84
2021/06/27 01:55:07;;;;;;;16.50;9.83;;;;;;;21.69;100.00;100811.91;1686544;84;21023;-81
2021/06/27 01:57:35;;;;;;;17.23;9.30;;;;;;;21.64;100.00;100813.23;1686468;85;21007;-84
2021/06/27 02:00:06;;;;;;;15.03;10.05;;;;;;;21.60;100.00;100812.44;1686628;85;21533;-81
2021/06/27 02:02:34;;;;;;;18.35;9.83;;;;;;;21.57;100.00;100804.34;1686281;85;21014;-86
2021/06/27 02:05:00;;;;;;;16.40;9.45;;;;;;;21.54;100.00;100797.24;1686643;85;21502;-79
2021/06/27 02:07:27;;;;;;;13.13;9.45;;;;;;;21.52;100.00;100811.13;1686738;85;20876;-82
2021/06/27 02:09:56;;;;;;;16.10;10.48;;;;;;;21.49;100.00;100810.14;1686805;85;21015;-81
2021/06/27 02:12:22;;;;;;;17.65;10.60;;;;;;;21.49;100.00;100812.78;1686735;85;21138;-80
2021/06/27 02:14:49;;;;;;;17.67;10.00;;;;;;;21.47;100.00;100824.84;1686670;85;21438;-81
2021/06/27 02:17:16;;;;;;;16.67;10.75;;;;;;;21.48;100.00;100828.28;1686812;85;21055;-82
2021/06/27 02:19:53;;;;;;;17.52;10.08;;;;;;;21.48;100.00;100836.20;1686527;85;21010;-79
2021/06/27 02:22:22;;;;;;;15.20;9.60;;;;;;;21.47;100.00;100830.62;1686704;85;20990;-80
2021/06/27 02:24:49;;;;;;;18.27;9.93;;;;;;;21.47;100.00;100833.26;1684957;85;21143;-79
2021/06/27 02:27:16;;;;;;;17.02;9.53;;;;;;;21.45;100.00;100828.62;1684050;84;21003;-84
2021/06/27 02:29:43;;;;;;;16.25;9.08;;;;;;;21.44;100.00;100840.99;1684447;84;21668;-82
2021/06/27 02:32:09;;;;;;;22.10;9.58;;;;;;;21.42;100.00;100838.20;1684252;84;21130;-78
2021/06/27 02:34:37;;;;;;;14.50;8.50;;;;;;;21.38;100.00;100836.38;1684165;85;21053;-80
2021/06/27 02:37:04;;;;;;;17.60;10.03;;;;;;;21.39;100.00;100839.85;1684197;84;21116;-82
2021/06/27 02:39:32;;;;;;;19.07;9.75;;;;;;;21.39;100.00;100841.17;1684146;85;20975;-79
2021/06/27 02:41:59;;;;;;;15.78;9.63;;;;;;;21.37;100.00;100840.03;1684030;84;21548;-78
2021/06/27 02:44:26;;;;;;;16.15;10.15;;;;;;;21.36;100.00;100840.19;1683978;85;21157;-83
2021/06/27 02:46:53;;;;;;;14.83;8.80;;;;;;;21.33;100.00;100838.70;1684187;84;21070;-78
2021/06/27 02:49:22;;;;;;;18.00;9.68;;;;;;;21.31;100.00;100842.02;1684245;85;21145;-84
2021/06/27 02:51:48;;;;;;;17.02;9.63;;;;;;;21.28;100.00;100839.72;1684020;84;21518;-82
2021/06/27 02:54:17;;;;;;;14.00;9.23;;;;;;;21.27;100.00;100847.30;1684023;85;21106;-83
2021/06/27 02:56:43;;;;;;;14.25;9.55;;;;;;;21.27;100.00;100843.83;1684137;85;20982;-80
2021/06/27 02:59:10;;;;;;;15.58;9.10;;;;;;;21.28;100.00;100848.95;1684266;85;21026;-82
2021/06/27 03:01:37;;;;;;;11.35;9.13;;;;;;;21.30;100.00;100844.81;1684153;85;21572;-76
2021/06/27 03:04:04;;;;;;;17.40;9.88;;;;;;;21.31;100.00;100851.27;1684046;85;20995;-79
2021/06/27 03:06:30;;;;;;;15.15;9.03;;;;;;;21.31;100.00;100854.39;1684133;85;21462;-78
2021/06/27 03:08:57;;;;;;;16.00;9.65;;;;;;;21.31;100.00;100853.91;1684068;85;20931;-81
2021/06/27 03:11:24;;;;;;;11.50;9.93;;;;;;;21.33;100.00;100853.72;1684218;85;21071;-78
2021/06/27 03:13:51;;;;;;;15.55;10.08;;;;;;;21.34;100.00;100861.98;1684275;85;21149;-83
2021/06/27 03:16:17;;;;;;;14.47;9.53;;;;;;;21.34;100.00;100861.98;1684126;85;21046;-79
2021/06/27 03:18:44;;;;;;;17.32;10.08;;;;;;;21.35;100.00;100866.25;1684238;85;21593;-79
2021/06/27 03:21:11;;;;;;;14.65;9.55;;;;;;;21.37;100.00;100871.72;1684228;85;20935;-78
2021/06/27 03:23:38;;;;;;;15.30;9.95;;;;;;;21.38;100.00;100872.02;1684288;84;20967;-81
2021/06/27 03:26:04;;;;;;;16.23;10.03;;;;;;;21.39;100.00;100874.17;1684116;84;21961;-82
2021/06/27 03:28:34;;;;;;;16.23;9.90;;;;;;;21.38;100.00;100865.42;1683891;84;20947;-85
2021/06/27 03:31:01;;;;;;;10.25;8.75;;;;;;;21.39;100.00;100865.77;1684096;85;20979;-82
2021/06/27 03:33:28;;;;;;;12.55;9.30;;;;;;;21.39;100.00;100874.17;1684168;85;20968;-80
2021/06/27 03:35:55;;;;;;;14.05;8.83;;;;;;;21.39;100.00;100869.72;1684271;85;21018;-82
2021/06/27 03:41:00;;;;;;;12.43;8.85;;;;;;;21.45;100.00;100877.47;1684098;85;20895;-82
2021/06/27 03:43:27;;;;;;;17.57;9.83;;;;;;;21.49;100.00;100883.58;1684043;84;21006;-83
2021/06/27 03:45:54;;;;;;;15.68;9.50;;;;;;;21.53;100.00;100895.47;1684152;85;21537;-82
2021/06/27 03:48:21;;;;;;;19.00;9.48;;;;;;;21.58;100.00;100893.64;1684041;84;21039;-86
2021/06/27 03:50:49;;;;;;;12.95;8.90;;;;;;;21.61;100.00;100899.91;1684008;85;21006;-84
2021/06/27 03:53:16;;;;;;;16.02;9.43;;;;;;;21.67;100.00;100907.16;1684296;85;20984;-84
2021/06/27 03:55:43;;;;;;;14.70;9.73;;;;;;;21.74;100.00;100903.36;1684284;85;21549;-86
2021/06/27 03:58:09;;;;;;;20.50;9.78;;;;;;;21.79;100.00;100904.53;1684185;84;20967;-85
2021/06/27 04:00:36;;;;;;;13.43;9.20;;;;;;;21.85;100.00;100901.21;1684176;84;21079;-82
2021/06/27 04:03:05;;;;;;;13.48;9.93;;;;;;;21.91;100.00;100909.81;1684122;85;21511;-80
2021/06/27 04:05:32;;;;;;;14.60;8.88;;;;;;;21.97;100.00;100906.98;1683885;84;21097;-82
2021/06/27 04:07:59;;;;;;;21.48;10.15;;;;;;;22.02;100.00;100904.65;1684367;85;20923;-88
2021/06/27 04:10:26;;;;;;;18.07;9.93;;;;;;;22.08;100.00;100914.05;1684329;85;21060;-84
2021/06/27 04:12:54;;;;;;;17.62;9.75;;;;;;;22.13;100.00;100923.64;1684221;85;21600;-85
2021/06/27 04:15:21;;;;;;;11.55;9.25;;;;;;;22.17;100.00;100928.09;1684413;84;21109;-87
2021/06/27 04:17:47;;;;;;;16.55;8.88;;;;;;;22.20;100.00;100934.36;1684145;85;21010;-84
2021/06/27 04:20:15;;;;;;;16.23;9.65;;;;;;;22.23;100.00;100935.83;1684249;85;20970;-82
2021/06/27 04:22:41;;;;;;;20.97;10.30;;;;;;;22.25;100.00;100929.87;1684048;85;21086;-77
2021/06/27 04:25:09;;;;;;;15.13;9.18;;;;;;;22.28;100.00;100931.67;1689452;84;21379;-81
2021/06/27 04:27:36;;;;;;;12.68;9.18;;;;;;;22.31;100.00;100933.98;1696262;83;21224;-87
2021/06/27 04:30:07;;;;;;;16.50;9.30;;;;;;;22.38;100.00;100933.62;1696278;84;21038;-84
2021/06/27 04:32:34;;;;;;;17.17;9.28;;;;;;;22.43;100.00;100933.93;1696202;84;20970;-81
2021/06/27 04:35:03;;;;;;;15.03;9.13;;;;;;;22.48;100.00;100928.97;1696586;84;21062;-81
2021/06/27 04:37:32;;;;;;;13.50;8.78;;;;;;;22.53;100.00;100933.23;1696415;84;20895;-83
2021/06/27 04:39:58;;;;;;;17.82;8.83;;;;;;;22.58;100.00;100929.59;1696580;84;21505;-83
2021/06/27 04:42:25;;;;;;;12.82;8.25;;;;;;;22.62;100.00;100933.52;1696519;84;21541;-78
2021/06/27 04:44:52;;;;;;;11.45;8.10;;;;;;;22.69;100.00;100928.39;1696556;84;21089;-83
2021/06/27 04:47:18;;;;;;;19.10;7.97;;;;;;;22.75;100.00;100926.91;1696495;84;21082;-81
2021/06/27 04:49:45;;;;;;;16.80;8.35;;;;;;;22.80;100.00;100928.02;1696715;84;21081;-84
2021/06/27 04:52:12;;;;;;;10.23;7.40;;;;;;;22.87;100.00;100926.33;1696405;84;21092;-83
2021/06/27 04:54:38;;;;;;;16.05;8.03;;;;;;;22.94;97.48;100937.05;1696516;84;20918;-82
2021/06/27 04:57:06;;;;;;;14.33;7.35;;;;;;;22.99;97.24;100939.48;1696568;84;21013;-87
2021/06/27 04:59:33;;;;;;;13.93;8.18;;;;;;;23.05;97.32;100942.76;1696418;84;21101;-83
2021/06/27 05:02:00;;;;;;;11.18;7.60;;;;;;;23.13;95.98;100936.59;1696453;84;20979;-87
2021/06/27 05:04:27;;;;;;;13.08;6.67;;;;;;;23.22;95.25;100943.98;1696215;84;21125;-85
2021/06/27 05:06:53;;;;;;;9.88;6.90;;;;;;;23.30;94.08;100940.77;1696262;84;21553;-81
2021/06/27 05:09:20;;;;;;;10.95;6.83;;;;;;;23.41;92.29;100947.02;1696347;84;20947;-87
2021/06/27 05:11:49;;;;;;;12.80;7.50;;;;;;;23.49;92.28;100950.08;1696797;84;20919;-85
2021/06/27 05:14:17;;;;;;;12.88;7.05;;;;;;;23.56;90.60;100953.67;1696512;84;21021;-82
2021/06/27 05:16:43;;;;;;;10.72;6.40;;;;;;;23.61;90.07;100948.16;1696433;84;21066;-83
2021/06/27 05:19:10;;;;;;;13.35;6.67;;;;;;;23.68;88.69;100949.59;1696343;84;20856;-83
2021/06/27 05:21:37;;;;;;;12.47;6.47;;;;;;;23.76;88.24;100948.70;1696138;84;21097;-81
2021/06/27 05:24:05;;;;;;;9.85;6.15;;;;;;;23.82;88.22;100954.11;1696181;84;21044;-81
2021/06/27 05:26:31;;;;;;;12.70;6.30;;;;;;;23.88;88.28;100952.06;1653927;85;21041;-84
2021/06/27 05:28:59;;;;;;;10.78;6.42;;;;;;;23.93;87.30;100954.98;1679045;85;21427;-83
2021/06/27 05:31:26;;;;;;;18.52;7.50;;;;;;;23.98;84.80;100951.31;1671547;85;21032;-79
2021/06/27 05:33:52;;;;;;;9.88;6.22;;;;;;;24.00;84.01;100956.41;1678131;85;21063;-82
2021/06/27 05:36:21;;;;;;;11.48;6.37;;;;;;;23.95;84.49;100959.63;1678424;85;20956;-83
2021/06/27 05:38:48;;;;;;;10.85;5.87;;;;;;;23.91;85.04;100967.61;1671345;85;21046;-85
2021/06/27 05:41:15;;;;;;;11.48;6.70;;;;;;;23.89;85.75;100970.95;1678968;84;21271;-82
2021/06/27 05:43:44;;;;;;;13.25;6.25;;;;;;;23.93;85.17;100982.02;1678319;85;21081;-86
2021/06/27 05:46:10;;;;;;;17.67;6.37;;;;;;;23.96;84.62;100979.84;1678405;85;21010;-84
2021/06/27 05:48:38;;;;;;;16.27;6.83;;;;;;;24.00;84.11;100980.28;1672059;85;20991;-83
2021/06/27 05:51:05;;;;;;;10.80;6.42;;;;;;;24.03;83.58;100984.72;1678792;85;20967;-84
2021/06/27 05:53:32;;;;;;;11.57;7.10;;;;;;;24.07;83.72;100979.87;1678337;85;21209;-84
2021/06/27 05:56:09;;;;;;;8.60;6.03;;;;;;;24.09;83.92;100976.04;1678843;85;21454;-83
2021/06/27 05:58:39;;;;;;;10.90;6.33;;;;;;;24.13;83.68;100972.06;1679457;85;20980;-88
2021/06/27 06:01:10;;;;;;;13.05;6.42;;;;;;;24.18;83.07;100977.66;1679215;85;22342;-85
2021/06/27 06:03:38;;;;;;;14.93;6.75;;;;;;;24.22;81.42;100970.96;1671997;85;21038;-82
2021/06/27 06:06:06;;;;;;;12.60;7.17;;;;;;;24.26;82.37;100970.10;1678953;85;21998;-87
2021/06/27 06:08:34;;;;;;;10.55;6.53;;;;;;;24.32;81.72;100973.84;1678789;85;21550;-86
2021/06/27 06:11:00;;;;;;;10.63;6.60;;;;;;;24.35;81.69;100982.27;1671516;85;20956;-83
2021/06/27 06:13:27;;;;;;;15.25;6.12;;;;;;;24.38;81.93;100981.89;1671835;85;20897;-84
2021/06/27 06:15:55;;;;;;;11.73;6.28;;;;;;;24.44;82.36;100982.48;1678948;85;21502;-83
2021/06/27 06:18:25;;;;;;;9.45;6.50;;;;;;;24.52;83.05;100992.20;1679029;85;21007;-84
2021/06/27 06:20:52;;;;;;;9.83;6.42;;;;;;;24.58;81.59;100992.78;1678272;85;20983;-85
2021/06/27 06:23:19;;;;;;;11.50;6.55;;;;;;;24.60;81.09;100989.47;1672171;85;21000;-85
2021/06/27 06:25:47;;;;;;;13.48;6.92;;;;;;;24.65;81.14;100977.78;1679430;85;21027;-85
2021/06/27 06:28:14;;;;;;;9.80;6.15;;;;;;;24.71;80.59;100971.73;1679227;85;21018;-84
2021/06/27 06:30:41;;;;;;;8.45;6.10;;;;;;;24.73;81.77;100981.14;1679545;85;21163;-85
2021/06/27 06:33:11;;;;;;;14.47;6.60;;;;;;;24.78;82.07;100980.60;1679457;85;20896;-89
2021/06/27 06:35:39;;;;;;;13.15;7.05;;;;;;;24.81;80.89;100980.73;1679347;85;21019;-87
2021/06/27 06:38:05;;;;;;;12.05;6.25;;;;;;;24.86;81.43;100984.50;1679336;85;21031;-83
2021/06/27 06:40:32;;;;;;;8.78;5.58;;;;;;;24.91;80.30;100978.64;1679287;85;21014;-80
2021/06/27 06:43:00;;;;;;;14.10;6.08;;;;;;;24.95;79.25;100982.08;1679148;85;21129;-84
2021/06/27 06:45:27;;;;;;;9.48;5.97;;;;;;;25.00;78.92;100981.50;1679331;85;21090;-85
2021/06/27 06:47:54;;;;;;;9.08;6.20;;;;;;;25.09;79.89;100978.55;1679356;85;21051;-84
2021/06/27 06:50:24;;;;;;;9.78;6.37;;;;;;;25.16;78.62;100970.15;1679477;85;20910;-81
2021/06/27 06:52:51;;;;;;;15.60;5.65;;;;;;;25.20;79.02;100972.75;1679100;85;21643;-82
2021/06/27 06:55:17;;;;;;;8.25;4.97;;;;;;;25.25;78.44;100970.84;1679269;85;21144;-84
2021/06/27 06:57:44;;;;;;;12.90;5.33;;;;;;;25.29;76.77;100974.77;1679205;85;20908;-83
2021/06/27 07:00:13;;;;;;;18.15;5.92;;;;;;;25.32;74.90;100973.06;1679636;85;20956;-83
2021/06/27 07:02:39;;;;;;;9.00;5.08;;;;;;;25.35;73.68;100973.19;1679664;85;20980;-79
2021/06/27 07:05:09;;;;;;;10.60;5.65;;;;;;;25.38;73.59;100971.48;1679620;85;20983;-87
2021/06/27 07:07:36;;;;;;;11.30;7.28;;;;;;;25.42;74.49;100976.23;1679834;85;21148;-83
2021/06/27 07:10:05;;;;;;;12.93;6.60;;;;;;;25.45;75.67;100969.72;1679316;85;21052;-84
2021/06/27 07:12:33;;;;;;;12.63;6.47;;;;;;;25.49;75.10;100970.98;1679282;85;21079;-89
2021/06/27 07:15:00;;;;;;;8.53;5.83;;;;;;;25.53;76.07;100968.27;1680320;85;20960;-82
2021/06/27 07:17:26;;;;;;;13.93;5.40;;;;;;;25.62;76.35;100962.63;1679386;85;20943;-83
2021/06/27 07:19:55;;;;;;;12.18;5.80;;;;;;;25.74;74.20;100958.97;1679470;85;21109;-86
2021/06/27 07:22:21;;;;;;;11.15;5.95;;;;;;;25.84;72.31;100960.79;1679089;85;20935;-84
2021/06/27 07:24:50;;;;;;;12.13;5.95;;;;;;;25.90;72.48;100963.17;1679202;85;21031;-87
2021/06/27 07:27:16;;;;;;;10.63;5.50;;;;;;;25.95;72.59;100963.41;1695343;84;20982;-87
2021/06/27 07:29:43;;;;;;;14.13;5.67;;;;;;;26.00;71.13;100963.16;1695335;84;21611;-86
2021/06/27 07:32:10;;;;;;;14.95;5.40;;;;;;;26.04;70.43;100961.73;1696593;84;21109;-84
2021/06/27 07:34:37;;;;;;;8.68;5.37;;;;;;;26.10;70.15;100956.17;1703935;84;21532;-83
2021/06/27 07:37:06;;;;;;;14.93;6.22;;;;;;;26.15;70.12;100963.04;1704099;84;20931;-87
2021/06/27 07:39:32;;;;;;;10.65;6.20;;;;;;;26.20;70.41;100957.97;1704146;84;21028;-87
2021/06/27 07:41:59;;;;;;;10.78;5.72;;;;;;;26.20;70.01;100957.47;1704164;84;21037;-81
2021/06/27 07:44:25;;;;;;;12.00;6.35;;;;;;;26.20;69.92;100964.62;1704223;84;21120;-83
2021/06/27 07:46:52;;;;;;;10.63;6.37;;;;;;;26.16;68.30;100962.89;1704077;84;20953;-85
2021/06/27 07:49:19;;;;;;;17.20;6.97;;;;;;;26.12;69.37;100960.77;1704164;84;20907;-82
2021/06/27 07:51:45;;;;;;;14.23;6.37;;;;;;;26.11;69.60;100956.45;1703990;84;21041;-81
2021/06/27 07:54:13;;;;;;;11.05;7.00;;;;;;;26.12;68.96;100960.77;1704004;84;21001;-88
2021/06/27 07:56:39;;;;;;;12.70;6.50;;;;;;;26.14;69.42;100964.88;1703967;83;21109;-76
2021/06/27 07:59:08;;;;;;;9.03;6.20;;;;;;;26.12;69.75;100958.11;1703960;84;21604;-85
2021/06/27 08:01:35;;;;;;;12.65;6.30;;;;;;;26.15;70.45;100964.38;1704080;84;21037;-83
2021/06/27 08:04:02;;;;;;;11.88;6.15;;;;;;;26.22;68.89;100963.94;1703917;84;21136;-84
2021/06/27 08:06:30;;;;;;;10.60;6.72;;;;;;;26.31;69.74;100960.10;1704032;84;21176;-84
2021/06/27 08:08:59;;;;;;;8.78;6.80;;;;;;;26.44;70.82;100963.34;1703916;84;21498;-83
2021/06/27 08:11:27;;;;;;;11.65;6.85;;;;;;;26.58;70.57;100961.86;1704147;84;21002;-84
2021/06/27 08:13:54;;;;;;;15.93;7.00;;;;;;;26.66;68.17;100965.70;1704116;84;21018;-80
2021/06/27 08:16:21;;;;;;;15.65;7.17;;;;;;;26.65;69.21;100964.55;1703813;84;21529;-82
2021/06/27 08:18:48;;;;;;;16.65;6.70;;;;;;;26.68;70.34;100962.33;1704153;84;21016;-87
2021/06/27 08:21:14;;;;;;;15.28;7.22;;;;;;;26.74;68.80;100961.52;1704136;84;21560;-82
2021/06/27 08:23:42;;;;;;;11.95;6.70;;;;;;;26.79;68.00;100962.27;1704121;84;21045;-84
2021/06/27 08:26:09;;;;;;;13.75;7.05;;;;;;;26.76;68.06;100963.50;1698293;84;21006;-83
2021/06/27 08:28:38;;;;;;;10.95;6.55;;;;;;;26.79;69.10;100962.27;1686614;85;21527;-85
2021/06/27 08:31:07;;;;;;;15.78;6.47;;;;;;;26.83;68.71;100964.89;1686623;85;21548;-84
2021/06/27 08:33:34;;;;;;;11.38;6.70;;;;;;;26.90;69.15;100960.38;1686574;85;21154;-81
2021/06/27 08:36:01;;;;;;;15.58;6.85;;;;;;;26.96;68.51;100974.77;1686786;85;21450;-82
2021/06/27 08:38:27;;;;;;;8.03;5.90;;;;;;;27.00;66.84;100967.98;1686597;85;21020;-88
2021/06/27 08:40:56;;;;;;;13.95;6.05;;;;;;;27.04;67.30;100962.08;1686651;85;20975;-85
2021/06/27 08:43:32;;;;;;;12.73;6.33;;;;;;;27.10;66.27;100965.27;1686259;85;21144;-81
2021/06/27 08:46:04;;;;;;;11.50;6.17;;;;;;;27.14;65.92;100966.51;1686501;85;21784;-83
2021/06/27 08:48:28;;;;;;;14.03;6.70;;;;;;;27.17;65.68;100970.10;1686417;85;20944;-84
2021/06/27 08:50:55;;;;;;;13.78;6.62;;;;;;;27.24;66.31;100972.78;1686367;85;21031;-78
2021/06/27 08:53:23;;;;;;;14.78;6.22;;;;;;;27.24;63.44;100971.45;1686414;85;21025;-81
2021/06/27 08:56:04;;;;;;;19.57;7.17;;;;;;;27.21;64.14;100970.02;1686356;85;21010;-83
2021/06/27 08:58:18;;;;;;;9.18;6.65;;;;;;;27.26;64.06;100974.72;1686707;84;21130;-84
2021/06/27 09:00:45;;;;;;;14.53;6.78;;;;;;;27.31;63.59;100974.95;1686426;85;20940;-82
2021/06/27 09:03:11;;;;;;;13.53;6.92;;;;;;;27.37;63.03;100971.98;1686515;85;21541;-83
2021/06/27 09:05:40;;;;;;;13.80;6.45;;;;;;;27.42;61.92;100974.84;1686409;85;21461;-86
2021/06/27 09:08:17;;;;;;;14.90;6.30;;;;;;;27.47;63.03;100977.77;1686622;85;21046;-88
2021/06/27 09:10:45;;;;;;;13.35;6.58;;;;;;;27.59;62.88;100973.47;1686572;85;21081;-83
2021/06/27 09:13:12;;;;;;;10.63;6.72;;;;;;;27.73;63.23;100979.92;1686303;85;21608;-89
2021/06/27 09:15:51;;;;;;;14.15;7.05;;;;;;;27.88;61.88;100973.57;1686397;85;20923;-84
2021/06/27 09:18:24;;;;;;;9.08;6.30;;;;;;;27.93;61.96;100981.76;1686273;85;20971;-86
2021/06/27 09:20:56;;;;;;;15.15;6.87;;;;;;;27.95;60.31;100978.39;1686291;85;21086;-84
2021/06/27 09:23:36;;;;;;;8.90;6.12;;;;;;;27.91;59.80;100978.48;1686454;85;21127;-79
2021/06/27 09:26:03;;;;;;;8.15;6.62;;;;;;;27.97;61.27;100973.16;1685742;84;21030;-80
2021/06/27 09:28:47;;;;;;;17.00;6.55;;;;;;;28.10;61.20;100970.50;1684159;85;20963;-90
2021/06/27 09:31:41;;;;;;;12.43;6.25;;;;;;;28.20;59.86;100970.89;1683852;85;21628;-81
2021/06/27 09:34:17;;;;;;;12.73;6.25;;;;;;;28.19;58.69;100973.76;1683926;85;21454;-81
2021/06/27 09:36:47;;;;;;;9.08;5.83;;;;;;;28.16;57.50;100974.17;1683373;85;21132;-84
2021/06/27 09:39:15;;;;;;;8.00;5.92;;;;;;;28.21;58.60;100977.85;1684035;85;21014;-84
2021/06/27 09:41:50;;;;;;;10.65;6.70;;;;;;;28.29;58.84;100977.65;1683911;85;21276;-82
2021/06/27 09:44:21;;;;;;;8.45;6.58;;;;;;;28.37;58.91;100984.08;1683859;85;20920;-88
2021/06/27 09:46:53;;;;;;;8.20;6.25;;;;;;;28.45;58.60;100979.04;1684227;85;20940;-82
2021/06/27 09:49:29;;;;;;;6.97;5.60;;;;;;;28.56;58.17;100981.04;1684190;84;21142;-84
2021/06/27 09:52:09;;;;;;;14.03;7.22;;;;;;;28.54;57.32;100971.09;1684303;85;20956;-84
2021/06/27 09:54:37;;;;;;;9.68;6.47;;;;;;;28.47;58.62;100982.31;1684665;84;21011;-82
2021/06/27 09:57:06;;;;;;;8.05;6.33;;;;;;;28.43;56.28;100982.45;1684058;85;21055;-83
2021/06/27 09:59:39;;;;;;;16.93;6.45;;;;;;;28.41;55.89;100976.47;1684164;85;21089;-83
2021/06/27 10:02:07;;;;;;;13.62;7.65;;;;;;;28.48;56.76;100982.63;1684345;85;39017;-86
2021/06/27 10:04:36;;;;;;;13.10;6.62;;;;;;;28.61;58.20;100987.09;1683712;85;21075;-86
2021/06/27 10:07:06;;;;;;;8.05;5.78;;;;;;;28.76;56.92;100986.34;1684146;85;21572;-90
2021/06/27 10:09:38;;;;;;;10.03;6.55;;;;;;;28.97;56.71;100981.23;1684153;85;20959;-82
2021/06/27 10:12:13;;;;;;;13.57;6.67;;;;;;;29.17;55.56;100985.92;1684442;84;20998;-88
2021/06/27 10:14:49;;;;;;;11.70;7.30;;;;;;;29.21;54.74;100985.80;1684643;85;21101;-84
2021/06/27 10:17:16;;;;;;;13.08;6.60;;;;;;;29.25;53.85;100986.54;1684057;85;20993;-82
2021/06/27 10:19:44;;;;;;;11.65;6.62;;;;;;;29.33;55.01;100979.59;1684155;85;21074;-84
2021/06/27 10:22:13;;;;;;;8.43;6.12;;;;;;;29.39;54.94;100988.59;1683893;85;20994;-82
2021/06/27 10:24:39;;;;;;;8.45;6.12;;;;;;;29.30;53.31;100989.89;1684298;85;21541;-85
2021/06/27 10:27:08;;;;;;;9.55;6.00;;;;;;;29.26;54.07;100989.50;1685141;85;21111;-80
2021/06/27 10:29:44;;;;;;;16.45;6.67;;;;;;;29.30;52.28;100983.20;1686551;85;21536;-89
2021/06/27 10:32:14;;;;;;;11.75;6.60;;;;;;;29.27;53.35;100987.13;1686740;85;21028;-83
2021/06/27 10:34:40;;;;;;;10.70;5.97;;;;;;;29.37;51.09;100989.34;1686475;85;21022;-83
2021/06/27 10:37:17;;;;;;;9.68;6.90;;;;;;;29.34;52.80;100982.57;1686668;85;21137;-83
2021/06/27 10:40:09;;;;;;;8.23;6.28;;;;;;;29.32;53.24;100989.17;1686052;85;21197;-90
2021/06/27 10:43:00;;;;;;;15.00;6.17;;;;;;;29.22;52.14;100988.79;1687138;85;20963;-86
2021/06/27 10:45:44;;;;;;;10.25;6.30;;;;;;;29.21;54.07;100991.98;1686617;85;21505;-82
2021/06/27 10:48:34;;;;;;;8.23;5.92;;;;;;;29.23;51.95;100988.56;1686877;85;21022;-84
2021/06/27 10:51:07;;;;;;;9.48;6.17;;;;;;;29.31;52.38;100988.35;1686589;85;21114;-83
2021/06/27 10:54:13;;;;;;;11.97;7.47;;;;;;;29.37;52.95;100982.65;1686538;85;20907;-79
2021/06/27 10:57:03;;;;;;;11.08;6.22;;;;;;;29.46;53.50;100988.55;1686438;84;20963;-83
2021/06/27 10:59:51;;;;;;;8.93;5.92;;;;;;;29.53;50.90;100992.00;1678241;85;21612;-79
2021/06/27 11:02:36;;;;;;;9.35;5.72;;;;;;;29.40;51.15;100986.23;1686492;85;20955;-84
2021/06/27 11:05:33;;;;;;;7.92;5.60;;;;;;;29.39;51.73;100988.08;1684400;85;20956;-88
2021/06/27 11:08:01;;;;;;;7.80;5.62;;;;;;;29.50;52.02;100983.08;1686702;85;21965;-85
2021/06/27 11:10:29;;;;;;;9.40;5.67;;;;;;;29.58;51.81;100989.51;1686647;85;21038;-83
2021/06/27 11:13:02;;;;;;;8.48;4.90;;;;;;;29.59;50.04;100987.11;1686738;85;21576;-82
2021/06/27 11:15:35;;;;;;;5.28;4.60;;;;;;;29.56;50.41;100980.34;1686352;85;21574;-84
2021/06/27 11:18:11;;;;;;;8.63;4.60;;;;;;;29.56;49.35;100971.50;1686001;85;21017;-78
2021/06/27 11:20:58;;;;;;;7.50;4.90;;;;;;;29.76;48.05;100977.01;1686896;85;21138;-86
2021/06/27 11:23:54;;;;;;;6.37;4.85;;;;;;;29.89;46.42;100976.10;1686576;85;20984;-86
2021/06/27 11:26:52;;;;;;;8.13;5.05;;;;;;;30.14;49.48;100972.87;1686478;84;20947;-86